Time;durP1;ratioP1;P1;durP2;ratioP2;P2;SDS_P1;SDS_P2;PMS_P1;PMS_P2;Temp;Humidity;BMP_temperature;BMP_pressure;BME280_temperature;BME280_humidity;BME280_pressure;Samples;Min_cycle;Max_cycle;Signal;HPM_P1;HPM_P2
2022/02/03 06:48:13;;;;;;;4.53;2.78;;;;;;;;;;10563356;28;20427;-85
2022/02/03 06:53:21;;;;;;;4.32;3.10;;;;;;;;;;10545709;28;20039;-86
2022/02/03 06:58:29;;;;;;;5.55;4.53;;;;;;;;;;10529009;28;20398;-86
2022/02/03 07:03:34;;;;;;;5.03;3.47;;;;;;;;;;10529592;28;20574;-87
2022/02/03 07:08:36;;;;;;;8.50;6.07;;;;;;;;;;10528777;28;20095;-86
2022/02/03 07:13:37;;;;;;;4.38;3.63;;;;;;;;;;10528667;28;20028;-86
2022/02/03 07:18:38;;;;;;;4.57;3.47;;;;;;;;;;10524357;28;20024;-86
2022/02/03 07:23:39;;;;;;;3.40;2.53;;;;;;;;;;10547304;28;20020;-84
2022/02/03 07:28:40;;;;;;;3.88;3.03;;;;;;;;;;10529115;28;20430;-86
2022/02/03 07:33:41;;;;;;;;;;;;;;;;;;10523873;28;20145;-86
2022/02/03 07:38:42;;;;;;;7.03;4.55;;;;;;;;;;10521611;28;19919;-86
2022/02/03 07:43:43;;;;;;;;;;;;;;;;;;10524306;28;20123;-86
2022/02/03 07:48:44;;;;;;;5.47;4.70;;;;;;;;;;10525127;28;19904;-85
2022/02/03 07:53:45;;;;;;;;;;;;;;;;;;10525786;28;20497;-85
2022/02/03 07:58:47;;;;;;;3.47;2.22;;;;;;;;;;10498722;28;19912;-86
2022/02/03 08:03:51;;;;;;;4.75;2.90;;;;;;;;;;10498428;28;20025;-86
2022/02/03 08:08:58;;;;;;;4.45;3.42;;;;;;;;;;10514773;28;20017;-83
2022/02/03 08:14:09;;;;;;;8.30;5.63;;;;;;;;;;10503628;28;20486;-82
2022/02/03 08:19:21;;;;;;;6.13;4.07;;;;;;;;;;10505631;28;20029;-81
2022/02/03 08:24:30;;;;;;;5.05;4.03;;;;;;;;;;10506263;28;20039;-82
2022/02/03 08:30:07;;;;;;;5.97;4.20;;;;;;;;;;10506076;28;20029;-81
2022/02/03 08:40:08;;;;;;;6.35;4.30;;;;;;;;;;10527675;28;20071;-81
2022/02/03 08:45:09;;;;;;;5.38;4.45;;;;;;;;;;10508445;28;20524;-81
2022/02/03 08:50:11;;;;;;;4.03;3.38;;;;;;;;;;10531224;28;20024;-80
2022/02/03 09:38:29;;;;;;;7.63;6.57;;;;;;;;;;10535005;28;20029;-82
2022/02/03 09:59:21;;;;;;;5.70;4.25;;;;;;;;;;10500919;28;20029;-83
2022/02/03 10:04:42;;;;;;;9.70;8.43;;;;;;;;;;10515633;28;20043;-82
2022/02/03 10:09:44;;;;;;;4.95;4.35;;;;;;;;;;10512719;28;20263;-83
2022/02/03 10:14:46;;;;;;;4.05;3.60;;;;;;;;;;10531993;28;20051;-83
2022/02/03 10:19:58;;;;;;;6.97;5.30;;;;;;;;;;10513230;28;20074;-83
2022/02/03 10:25:13;;;;;;;6.70;4.80;;;;;;;;;;10513922;28;20120;-82
2022/02/03 10:30:25;;;;;;;6.72;5.32;;;;;;;;;;10514034;28;20044;-81
2022/02/03 10:35:42;;;;;;;6.47;4.82;;;;;;;;;;10512685;28;20092;-83
2022/02/03 11:02:47;;;;;;;5.30;4.45;;;;;;;;;;10533793;28;20040;-82
2022/02/03 11:07:58;;;;;;;4.30;3.35;;;;;;;;;;10514739;28;20058;-82
2022/02/03 11:13:00;;;;;;;5.70;4.32;;;;;;;;;;10516549;28;20107;-83
2022/02/03 11:18:05;;;;;;;6.25;3.70;;;;;;;;;;10513385;28;20044;-82
2022/02/03 11:28:28;;;;;;;5.07;3.83;;;;;;;;;;10506452;22;20135;-81
2022/02/03 11:56:05;;;;;;;7.03;5.32;;;;;;;;;;10306616;28;20031;-83
2022/02/03 12:01:36;;;;;;;5.03;4.38;;;;;;;;;;10450281;28;20552;-83
2022/02/03 12:12:59;;;;;;;7.75;5.07;;;;;;;;;;10431037;28;20029;-83
2022/02/03 12:18:17;;;;;;;6.07;3.97;;;;;;;;;;10456501;28;20036;-83
2022/02/03 12:23:47;;;;;;;7.13;4.47;;;;;;;;;;10456997;28;20029;-82
2022/02/03 12:28:53;;;;;;;7.00;4.93;;;;;;;;;;10459080;28;20029;-82
2022/02/03 12:39:20;;;;;;;3.28;2.40;;;;;;;;;;10501264;28;20045;-84
2022/02/03 12:44:27;;;;;;;4.68;3.30;;;;;;;;;;10488221;28;20104;-85
2022/02/03 12:49:30;;;;;;;4.65;3.05;;;;;;;;;;10466578;28;20040;-86
2022/02/03 12:54:33;;;;;;;5.25;3.63;;;;;;;;;;10483454;28;20395;-83
2022/02/03 12:59:34;;;;;;;6.78;3.67;;;;;;;;;;10467179;28;20025;-83
2022/02/03 13:04:35;;;;;;;4.00;2.50;;;;;;;;;;10465520;28;20048;-84
2022/02/03 13:09:52;;;;;;;;;;;;;;;;;;10469219;28;20080;-85
2022/02/03 13:14:56;;;;;;;3.38;2.63;;;;;;;;;;10480886;28;19912;-85
2022/02/03 13:20:11;;;;;;;3.85;2.80;;;;;;;;;;10463190;28;20025;-83
2022/02/03 13:26:04;;;;;;;6.40;2.75;;;;;;;;;;10461609;28;20056;-83
2022/02/03 13:30:45;;;;;;;5.30;2.83;;;;;;;;;;10463408;28;20033;-83
2022/02/03 13:35:52;;;;;;;4.43;2.70;;;;;;;;;;10479654;28;20088;-85
2022/02/03 13:41:07;;;;;;;3.88;2.60;;;;;;;;;;10460725;28;20394;-83
2022/02/03 13:46:08;;;;;;;4.93;3.17;;;;;;;;;;10461581;28;20371;-82
2022/02/03 13:51:15;;;;;;;5.43;4.10;;;;;;;;;;10459943;28;20033;-80
2022/02/03 14:28:10;;;;;;;3.10;2.20;;;;;;;;;;10472431;28;20139;-83
2022/02/03 14:33:13;;;;;;;5.15;3.72;;;;;;;;;;10455895;28;20036;-83
2022/02/03 14:38:29;;;;;;;3.58;2.30;;;;;;;;;;10455907;28;20403;-83
2022/02/03 14:43:30;;;;;;;3.28;2.25;;;;;;;;;;10454405;28;20116;-83
2022/02/03 14:48:31;;;;;;;5.95;4.40;;;;;;;;;;10457615;28;20021;-84
2022/02/03 14:59:00;;;;;;;4.53;3.55;;;;;;;;;;10441395;28;19932;-83
2022/02/03 15:04:03;;;;;;;5.32;4.65;;;;;;;;;;10453157;28;20073;-83
2022/02/03 15:09:48;;;;;;;5.47;4.15;;;;;;;;;;10459529;28;20025;-83
2022/02/03 15:14:43;;;;;;;4.78;3.30;;;;;;;;;;10478451;28;20025;-83
2022/02/03 15:19:44;;;;;;;4.10;2.25;;;;;;;;;;10477028;28;20040;-83
2022/02/03 15:24:45;;;;;;;;;;;;;;;;;;10458619;28;20024;-84
2022/02/03 15:29:48;;;;;;;5.15;2.67;;;;;;;;;;10467835;28;20024;-84
2022/02/03 15:34:50;;;;;;;4.88;2.72;;;;;;;;;;10488359;28;20025;-84
2022/02/03 15:39:53;;;;;;;4.35;3.22;;;;;;;;;;10473577;28;20088;-83
2022/02/03 15:44:56;;;;;;;8.18;4.32;;;;;;;;;;10462397;28;20032;-84
2022/02/03 16:01:06;;;;;;;4.38;2.80;;;;;;;;;;10479890;28;20053;-85
2022/02/03 16:22:09;;;;;;;;;;;;;;;;;;10474674;28;20064;-84
2022/02/03 16:53:36;;;;;;;6.07;3.47;;;;;;;;;;10481826;28;20108;-82
2022/02/03 16:58:40;;;;;;;3.92;3.10;;;;;;;;;;10459529;28;20402;-81
2022/02/03 17:03:43;;;;;;;8.95;6.82;;;;;;;;;;10465202;28;20017;-82
2022/02/03 17:08:44;;;;;;;3.78;3.05;;;;;;;;;;10461671;28;20025;-83
2022/02/03 17:13:46;;;;;;;;;;;;;;;;;;10460705;28;20127;-82
2022/02/03 17:18:50;;;;;;;6.57;4.18;;;;;;;;;;10459745;28;19905;-83
2022/02/03 17:23:51;;;;;;;3.55;2.72;;;;;;;;;;10460359;28;20096;-83
2022/02/03 17:29:00;;;;;;;;;;;;;;;;;;10517398;22;20053;-82
2022/02/03 17:52:13;;;;;;;5.22;3.08;;;;;;;;;;10476807;28;20033;-82
2022/02/03 18:06:48;;;;;;;4.88;2.53;;;;;;;;;;10478262;28;20029;-84
2022/02/03 18:11:53;;;;;;;5.45;3.78;;;;;;;;;;10475746;28;20028;-82
2022/02/03 18:33:08;;;;;;;6.28;3.70;;;;;;;;;;10477197;28;20037;-85
